sensor_id;sensor_type;location;lat;lon;timestamp;P1;durP1;ratioP1;P2;durP2;ratioP2
71265;SDS011;59030;52.052;8.550;2023-08-06T00:00:58;2.67;;;2.20;;
71265;SDS011;59030;52.052;8.550;2023-08-06T00:03:25;2.30;;;2.10;;
71265;SDS011;59030;52.052;8.550;2023-08-06T00:05:53;2.17;;;1.97;;
71265;SDS011;59030;52.052;8.550;2023-08-06T00:08:20;2.17;;;1.97;;
71265;SDS011;59030;52.052;8.550;2023-08-06T00:10:48;4.03;;;2.50;;
71265;SDS011;59030;52.052;8.550;2023-08-06T00:13:15;2.20;;;2.00;;
71265;SDS011;59030;52.052;8.550;2023-08-06T00:15:42;2.30;;;2.10;;
71265;SDS011;59030;52.052;8.550;2023-08-06T00:18:09;4.33;;;2.40;;
71265;SDS011;59030;52.052;8.550;2023-08-06T00:20:38;2.33;;;1.90;;
71265;SDS011;59030;52.052;8.550;2023-08-06T00:23:06;2.30;;;2.10;;
71265;SDS011;59030;52.052;8.550;2023-08-06T00:25:33;3.00;;;2.07;;
71265;SDS011;59030;52.052;8.550;2023-08-06T00:28:00;2.30;;;2.10;;
71265;SDS011;59030;52.052;8.550;2023-08-06T00:30:28;2.57;;;2.20;;
71265;SDS011;59030;52.052;8.550;2023-08-06T00:32:55;2.30;;;1.93;;
71265;SDS011;59030;52.052;8.550;2023-08-06T00:35:25;2.50;;;2.30;;
71265;SDS011;59030;52.052;8.550;2023-08-06T00:37:52;2.97;;;2.50;;
71265;SDS011;59030;52.052;8.550;2023-08-06T00:40:20;3.13;;;1.90;;
71265;SDS011;59030;52.052;8.550;2023-08-06T00:42:48;2.40;;;2.20;;
71265;SDS011;59030;52.052;8.550;2023-08-06T00:45:15;6.80;;;2.33;;
71265;SDS011;59030;52.052;8.550;2023-08-06T00:47:43;4.83;;;2.37;;
71265;SDS011;59030;52.052;8.550;2023-08-06T00:50:10;3.90;;;2.07;;
71265;SDS011;59030;52.052;8.550;2023-08-06T00:52:37;2.40;;;2.20;;
71265;SDS011;59030;52.052;8.550;2023-08-06T00:55:05;5.97;;;2.30;;
71265;SDS011;59030;52.052;8.550;2023-08-06T00:57:32;4.60;;;2.50;;
71265;SDS011;59030;52.052;8.550;2023-08-06T00:59:59;2.73;;;2.03;;
71265;SDS011;59030;52.052;8.550;2023-08-06T01:02:27;2.60;;;2.40;;
71265;SDS011;59030;52.052;8.550;2023-08-06T01:04:54;2.60;;;2.40;;
71265;SDS011;59030;52.052;8.550;2023-08-06T01:07:25;3.10;;;2.20;;
71265;SDS011;59030;52.052;8.550;2023-08-06T01:09:53;3.03;;;2.40;;
71265;SDS011;59030;52.052;8.550;2023-08-06T01:12:21;2.57;;;2.33;;
71265;SDS011;59030;52.052;8.550;2023-08-06T01:14:52;4.40;;;2.23;;
71265;SDS011;59030;52.052;8.550;2023-08-06T01:17:19;3.30;;;2.40;;
71265;SDS011;59030;52.052;8.550;2023-08-06T01:19:47;2.40;;;2.20;;
71265;SDS011;59030;52.052;8.550;2023-08-06T01:22:14;2.60;;;2.30;;
71265;SDS011;59030;52.052;8.550;2023-08-06T01:24:41;2.83;;;2.53;;
71265;SDS011;59030;52.052;8.550;2023-08-06T01:27:11;3.10;;;2.63;;
71265;SDS011;59030;52.052;8.550;2023-08-06T01:29:39;3.07;;;2.77;;
71265;SDS011;59030;52.052;8.550;2023-08-06T01:32:07;3.13;;;2.67;;
71265;SDS011;59030;52.052;8.550;2023-08-06T01:34:35;2.87;;;2.57;;
71265;SDS011;59030;52.052;8.550;2023-08-06T01:37:04;2.67;;;2.40;;
71265;SDS011;59030;52.052;8.550;2023-08-06T01:39:33;3.20;;;2.77;;
71265;SDS011;59030;52.052;8.550;2023-08-06T01:42:00;2.87;;;2.50;;
71265;SDS011;59030;52.052;8.550;2023-08-06T01:44:28;2.87;;;2.50;;
71265;SDS011;59030;52.052;8.550;2023-08-06T01:46:55;2.60;;;2.37;;
71265;SDS011;59030;52.052;8.550;2023-08-06T01:49:22;2.93;;;2.57;;
71265;SDS011;59030;52.052;8.550;2023-08-06T01:51:49;3.13;;;2.83;;
71265;SDS011;59030;52.052;8.550;2023-08-06T01:54:16;3.03;;;2.73;;
71265;SDS011;59030;52.052;8.550;2023-08-06T01:56:44;3.37;;;2.90;;
71265;SDS011;59030;52.052;8.550;2023-08-06T01:59:11;3.27;;;2.90;;
71265;SDS011;59030;52.052;8.550;2023-08-06T02:01:38;3.23;;;2.90;;
71265;SDS011;59030;52.052;8.550;2023-08-06T02:04:05;3.00;;;2.70;;
71265;SDS011;59030;52.052;8.550;2023-08-06T02:06:32;3.10;;;2.80;;
71265;SDS011;59030;52.052;8.550;2023-08-06T02:08:59;3.30;;;3.00;;
71265;SDS011;59030;52.052;8.550;2023-08-06T02:11:27;3.23;;;2.60;;
71265;SDS011;59030;52.052;8.550;2023-08-06T02:13:54;3.93;;;3.20;;
71265;SDS011;59030;52.052;8.550;2023-08-06T02:16:21;3.70;;;2.90;;
71265;SDS011;59030;52.052;8.550;2023-08-06T02:18:48;3.43;;;3.00;;
71265;SDS011;59030;52.052;8.550;2023-08-06T02:21:16;4.03;;;2.83;;
71265;SDS011;59030;52.052;8.550;2023-08-06T02:23:43;4.77;;;3.00;;
71265;SDS011;59030;52.052;8.550;2023-08-06T02:26:10;4.43;;;2.60;;
71265;SDS011;59030;52.052;8.550;2023-08-06T02:28:37;3.97;;;2.57;;
71265;SDS011;59030;52.052;8.550;2023-08-06T02:31:04;2.97;;;2.67;;
71265;SDS011;59030;52.052;8.550;2023-08-06T02:33:32;3.43;;;2.80;;
71265;SDS011;59030;52.052;8.550;2023-08-06T02:36:00;3.00;;;2.60;;
71265;SDS011;59030;52.052;8.550;2023-08-06T02:38:27;2.90;;;2.57;;
71265;SDS011;59030;52.052;8.550;2023-08-06T02:40:55;2.90;;;2.60;;
71265;SDS011;59030;52.052;8.550;2023-08-06T02:43:22;2.83;;;2.47;;
71265;SDS011;59030;52.052;8.550;2023-08-06T02:45:49;3.00;;;2.70;;
71265;SDS011;59030;52.052;8.550;2023-08-06T02:48:16;3.60;;;3.00;;
71265;SDS011;59030;52.052;8.550;2023-08-06T02:50:44;3.10;;;2.77;;
71265;SDS011;59030;52.052;8.550;2023-08-06T02:53:11;3.10;;;2.70;;
71265;SDS011;59030;52.052;8.550;2023-08-06T02:55:38;3.27;;;2.73;;
71265;SDS011;59030;52.052;8.550;2023-08-06T02:58:07;3.40;;;2.80;;
71265;SDS011;59030;52.052;8.550;2023-08-06T03:00:34;3.07;;;2.77;;
71265;SDS011;59030;52.052;8.550;2023-08-06T03:03:01;2.80;;;2.37;;
71265;SDS011;59030;52.052;8.550;2023-08-06T03:05:28;3.13;;;2.70;;
71265;SDS011;59030;52.052;8.550;2023-08-06T03:07:56;2.63;;;2.40;;
71265;SDS011;59030;52.052;8.550;2023-08-06T03:10:23;2.73;;;2.50;;
71265;SDS011;59030;52.052;8.550;2023-08-06T03:12:50;2.37;;;2.17;;
71265;SDS011;59030;52.052;8.550;2023-08-06T03:15:17;3.57;;;2.73;;
71265;SDS011;59030;52.052;8.550;2023-08-06T03:17:44;3.50;;;2.90;;
71265;SDS011;59030;52.052;8.550;2023-08-06T03:20:12;3.50;;;2.60;;
71265;SDS011;59030;52.052;8.550;2023-08-06T03:22:39;2.77;;;2.57;;
71265;SDS011;59030;52.052;8.550;2023-08-06T03:25:06;3.03;;;2.60;;
71265;SDS011;59030;52.052;8.550;2023-08-06T03:27:34;3.07;;;2.60;;
71265;SDS011;59030;52.052;8.550;2023-08-06T03:30:01;2.87;;;2.53;;
71265;SDS011;59030;52.052;8.550;2023-08-06T03:32:28;2.60;;;2.40;;
71265;SDS011;59030;52.052;8.550;2023-08-06T03:34:55;3.67;;;3.03;;
71265;SDS011;59030;52.052;8.550;2023-08-06T03:37:23;3.00;;;2.67;;
71265;SDS011;59030;52.052;8.550;2023-08-06T03:39:50;4.63;;;2.90;;
71265;SDS011;59030;52.052;8.550;2023-08-06T03:42:17;2.90;;;2.60;;
71265;SDS011;59030;52.052;8.550;2023-08-06T03:44:44;3.10;;;2.80;;
71265;SDS011;59030;52.052;8.550;2023-08-06T03:47:11;3.50;;;2.60;;
71265;SDS011;59030;52.052;8.550;2023-08-06T03:49:38;3.30;;;2.80;;
71265;SDS011;59030;52.052;8.550;2023-08-06T03:52:06;3.40;;;3.10;;
71265;SDS011;59030;52.052;8.550;2023-08-06T03:54:34;4.33;;;3.37;;
71265;SDS011;59030;52.052;8.550;2023-08-06T03:57:01;3.87;;;2.97;;
71265;SDS011;59030;52.052;8.550;2023-08-06T03:59:28;6.47;;;3.20;;
71265;SDS011;59030;52.052;8.550;2023-08-06T04:01:55;3.90;;;3.50;;
71265;SDS011;59030;52.052;8.550;2023-08-06T04:04:23;4.17;;;3.60;;
71265;SDS011;59030;52.052;8.550;2023-08-06T04:06:50;4.27;;;3.03;;
71265;SDS011;59030;52.052;8.550;2023-08-06T04:09:17;3.87;;;3.10;;
71265;SDS011;59030;52.052;8.550;2023-08-06T04:11:44;3.80;;;3.10;;
71265;SDS011;59030;52.052;8.550;2023-08-06T04:14:11;3.93;;;3.13;;
71265;SDS011;59030;52.052;8.550;2023-08-06T04:16:39;3.63;;;3.23;;
71265;SDS011;59030;52.052;8.550;2023-08-06T04:19:06;3.37;;;3.07;;
71265;SDS011;59030;52.052;8.550;2023-08-06T04:21:33;3.40;;;3.10;;
71265;SDS011;59030;52.052;8.550;2023-08-06T04:24:00;3.33;;;3.03;;
71265;SDS011;59030;52.052;8.550;2023-08-06T04:26:28;4.53;;;3.30;;
71265;SDS011;59030;52.052;8.550;2023-08-06T04:28:55;3.43;;;3.13;;
71265;SDS011;59030;52.052;8.550;2023-08-06T04:31:22;4.43;;;3.50;;
71265;SDS011;59030;52.052;8.550;2023-08-06T04:33:49;3.87;;;3.00;;
71265;SDS011;59030;52.052;8.550;2023-08-06T04:36:17;3.50;;;3.20;;
71265;SDS011;59030;52.052;8.550;2023-08-06T04:38:44;4.37;;;3.30;;
71265;SDS011;59030;52.052;8.550;2023-08-06T04:41:13;6.07;;;3.60;;
71265;SDS011;59030;52.052;8.550;2023-08-06T04:43:40;4.60;;;3.57;;
71265;SDS011;59030;52.052;8.550;2023-08-06T04:46:07;3.70;;;3.37;;
71265;SDS011;59030;52.052;8.550;2023-08-06T04:48:34;3.50;;;2.90;;
71265;SDS011;59030;52.052;8.550;2023-08-06T04:51:02;3.40;;;3.10;;
71265;SDS011;59030;52.052;8.550;2023-08-06T04:53:29;3.50;;;3.17;;
71265;SDS011;59030;52.052;8.550;2023-08-06T04:55:56;3.30;;;3.00;;
71265;SDS011;59030;52.052;8.550;2023-08-06T04:58:23;3.80;;;3.10;;
71265;SDS011;59030;52.052;8.550;2023-08-06T05:00:50;3.43;;;2.90;;
71265;SDS011;59030;52.052;8.550;2023-08-06T05:03:17;3.07;;;2.77;;
71265;SDS011;59030;52.052;8.550;2023-08-06T05:05:46;2.87;;;2.57;;
71265;SDS011;59030;52.052;8.550;2023-08-06T05:08:14;3.73;;;3.10;;
71265;SDS011;59030;52.052;8.550;2023-08-06T05:10:43;3.10;;;2.70;;
71265;SDS011;59030;52.052;8.550;2023-08-06T05:13:10;2.90;;;2.63;;
71265;SDS011;59030;52.052;8.550;2023-08-06T05:15:38;2.90;;;2.60;;
71265;SDS011;59030;52.052;8.550;2023-08-06T05:18:07;2.93;;;2.60;;
71265;SDS011;59030;52.052;8.550;2023-08-06T05:20:36;4.77;;;2.97;;
71265;SDS011;59030;52.052;8.550;2023-08-06T05:23:04;2.87;;;2.57;;
71265;SDS011;59030;52.052;8.550;2023-08-06T05:25:31;4.40;;;2.73;;
71265;SDS011;59030;52.052;8.550;2023-08-06T05:27:58;2.93;;;2.73;;
71265;SDS011;59030;52.052;8.550;2023-08-06T05:30:25;2.83;;;2.53;;
71265;SDS011;59030;52.052;8.550;2023-08-06T05:32:53;2.60;;;2.40;;
71265;SDS011;59030;52.052;8.550;2023-08-06T05:35:21;3.00;;;2.47;;
71265;SDS011;59030;52.052;8.550;2023-08-06T05:37:49;3.00;;;2.70;;
71265;SDS011;59030;52.052;8.550;2023-08-06T05:40:16;3.33;;;2.70;;
71265;SDS011;59030;52.052;8.550;2023-08-06T05:42:44;3.83;;;3.10;;
71265;SDS011;59030;52.052;8.550;2023-08-06T05:45:11;3.90;;;2.70;;
71265;SDS011;59030;52.052;8.550;2023-08-06T05:47:38;2.90;;;2.60;;
71265;SDS011;59030;52.052;8.550;2023-08-06T05:50:07;3.87;;;2.97;;
71265;SDS011;59030;52.052;8.550;2023-08-06T05:52:35;2.97;;;2.67;;
71265;SDS011;59030;52.052;8.550;2023-08-06T05:55:02;3.80;;;2.67;;
71265;SDS011;59030;52.052;8.550;2023-08-06T05:57:30;2.93;;;2.63;;
71265;SDS011;59030;52.052;8.550;2023-08-06T05:59:57;3.20;;;2.90;;
71265;SDS011;59030;52.052;8.550;2023-08-06T06:02:25;4.40;;;2.83;;
71265;SDS011;59030;52.052;8.550;2023-08-06T06:04:53;4.13;;;2.97;;
71265;SDS011;59030;52.052;8.550;2023-08-06T06:07:21;3.30;;;3.00;;
71265;SDS011;59030;52.052;8.550;2023-08-06T06:09:48;3.60;;;3.03;;
71265;SDS011;59030;52.052;8.550;2023-08-06T06:12:16;3.10;;;2.80;;
71265;SDS011;59030;52.052;8.550;2023-08-06T06:14:44;4.07;;;2.90;;
71265;SDS011;59030;52.052;8.550;2023-08-06T06:17:12;4.13;;;3.10;;
71265;SDS011;59030;52.052;8.550;2023-08-06T06:19:40;4.90;;;3.00;;
71265;SDS011;59030;52.052;8.550;2023-08-06T06:22:07;3.37;;;3.03;;
71265;SDS011;59030;52.052;8.550;2023-08-06T06:24:35;3.90;;;3.17;;
71265;SDS011;59030;52.052;8.550;2023-08-06T06:27:03;3.40;;;2.90;;
71265;SDS011;59030;52.052;8.550;2023-08-06T06:29:31;3.90;;;2.90;;
71265;SDS011;59030;52.052;8.550;2023-08-06T06:31:58;3.13;;;2.83;;
71265;SDS011;59030;52.052;8.550;2023-08-06T06:34:27;3.73;;;3.00;;
71265;SDS011;59030;52.052;8.550;2023-08-06T06:36:54;4.17;;;3.20;;
71265;SDS011;59030;52.052;8.550;2023-08-06T06:39:22;3.90;;;3.17;;
71265;SDS011;59030;52.052;8.550;2023-08-06T06:41:50;3.37;;;3.00;;
71265;SDS011;59030;52.052;8.550;2023-08-06T06:44:17;3.17;;;2.87;;
71265;SDS011;59030;52.052;8.550;2023-08-06T06:46:46;3.60;;;2.80;;
71265;SDS011;59030;52.052;8.550;2023-08-06T06:49:14;3.90;;;2.73;;
71265;SDS011;59030;52.052;8.550;2023-08-06T06:51:41;3.70;;;3.27;;
71265;SDS011;59030;52.052;8.550;2023-08-06T06:54:09;3.40;;;3.10;;
71265;SDS011;59030;52.052;8.550;2023-08-06T06:56:37;3.13;;;2.83;;
71265;SDS011;59030;52.052;8.550;2023-08-06T06:59:05;3.57;;;3.07;;
71265;SDS011;59030;52.052;8.550;2023-08-06T07:01:32;3.27;;;2.97;;
71265;SDS011;59030;52.052;8.550;2023-08-06T07:03:59;3.53;;;3.23;;
71265;SDS011;59030;52.052;8.550;2023-08-06T07:06:30;4.50;;;3.07;;
71265;SDS011;59030;52.052;8.550;2023-08-06T07:08:57;4.17;;;3.40;;
71265;SDS011;59030;52.052;8.550;2023-08-06T07:11:25;3.53;;;3.23;;
71265;SDS011;59030;52.052;8.550;2023-08-06T07:13:56;3.30;;;3.00;;
71265;SDS011;59030;52.052;8.550;2023-08-06T07:16:24;3.33;;;3.00;;
71265;SDS011;59030;52.052;8.550;2023-08-06T07:18:53;4.00;;;3.37;;
71265;SDS011;59030;52.052;8.550;2023-08-06T07:21:20;3.73;;;3.20;;
71265;SDS011;59030;52.052;8.550;2023-08-06T07:23:48;3.30;;;3.00;;
71265;SDS011;59030;52.052;8.550;2023-08-06T07:26:16;3.60;;;3.03;;
71265;SDS011;59030;52.052;8.550;2023-08-06T07:28:43;3.30;;;3.00;;
71265;SDS011;59030;52.052;8.550;2023-08-06T07:31:11;3.97;;;3.07;;
71265;SDS011;59030;52.052;8.550;2023-08-06T07:33:38;5.03;;;3.13;;
71265;SDS011;59030;52.052;8.550;2023-08-06T07:36:09;3.53;;;3.23;;
71265;SDS011;59030;52.052;8.550;2023-08-06T07:38:37;4.70;;;3.30;;
71265;SDS011;59030;52.052;8.550;2023-08-06T07:41:08;4.93;;;3.40;;
71265;SDS011;59030;52.052;8.550;2023-08-06T07:43:55;3.53;;;3.13;;
71265;SDS011;59030;52.052;8.550;2023-08-06T07:46:22;3.53;;;3.00;;
71265;SDS011;59030;52.052;8.550;2023-08-06T07:48:50;3.23;;;2.93;;
71265;SDS011;59030;52.052;8.550;2023-08-06T07:51:17;3.10;;;2.80;;
71265;SDS011;59030;52.052;8.550;2023-08-06T07:53:45;3.17;;;2.87;;
71265;SDS011;59030;52.052;8.550;2023-08-06T07:56:12;3.80;;;3.20;;
71265;SDS011;59030;52.052;8.550;2023-08-06T07:58:40;3.27;;;2.97;;
71265;SDS011;59030;52.052;8.550;2023-08-06T08:01:07;3.53;;;3.03;;
71265;SDS011;59030;52.052;8.550;2023-08-06T08:03:35;3.10;;;2.73;;
71265;SDS011;59030;52.052;8.550;2023-08-06T08:06:02;4.03;;;3.00;;
71265;SDS011;59030;52.052;8.550;2023-08-06T08:08:30;3.40;;;2.90;;
71265;SDS011;59030;52.052;8.550;2023-08-06T08:10:58;3.37;;;3.07;;
71265;SDS011;59030;52.052;8.550;2023-08-06T08:13:26;3.23;;;2.93;;
71265;SDS011;59030;52.052;8.550;2023-08-06T08:15:56;3.80;;;3.13;;
71265;SDS011;59030;52.052;8.550;2023-08-06T08:18:24;3.43;;;2.80;;
71265;SDS011;59030;52.052;8.550;2023-08-06T08:20:52;2.80;;;2.60;;
71265;SDS011;59030;52.052;8.550;2023-08-06T08:23:19;3.30;;;2.77;;
71265;SDS011;59030;52.052;8.550;2023-08-06T08:25:46;3.97;;;2.60;;
71265;SDS011;59030;52.052;8.550;2023-08-06T08:28:14;3.67;;;2.83;;
71265;SDS011;59030;52.052;8.550;2023-08-06T08:30:41;3.33;;;2.70;;
71265;SDS011;59030;52.052;8.550;2023-08-06T08:33:09;3.70;;;3.10;;
71265;SDS011;59030;52.052;8.550;2023-08-06T08:35:36;3.57;;;3.00;;
71265;SDS011;59030;52.052;8.550;2023-08-06T08:38:04;2.87;;;2.57;;
71265;SDS011;59030;52.052;8.550;2023-08-06T08:40:32;3.03;;;2.73;;
71265;SDS011;59030;52.052;8.550;2023-08-06T08:43:00;2.93;;;2.63;;
71265;SDS011;59030;52.052;8.550;2023-08-06T08:45:29;3.23;;;2.70;;
71265;SDS011;59030;52.052;8.550;2023-08-06T08:47:57;4.03;;;2.83;;
71265;SDS011;59030;52.052;8.550;2023-08-06T08:50:24;2.97;;;2.50;;
71265;SDS011;59030;52.052;8.550;2023-08-06T08:52:52;2.70;;;2.50;;
71265;SDS011;59030;52.052;8.550;2023-08-06T08:55:20;2.83;;;2.50;;
71265;SDS011;59030;52.052;8.550;2023-08-06T08:57:48;2.57;;;2.30;;
71265;SDS011;59030;52.052;8.550;2023-08-06T09:00:15;3.00;;;2.33;;
71265;SDS011;59030;52.052;8.550;2023-08-06T09:02:43;2.90;;;2.60;;
71265;SDS011;59030;52.052;8.550;2023-08-06T09:05:11;2.87;;;2.57;;
71265;SDS011;59030;52.052;8.550;2023-08-06T09:07:41;3.20;;;2.40;;
71265;SDS011;59030;52.052;8.550;2023-08-06T09:10:10;2.70;;;2.20;;
71265;SDS011;59030;52.052;8.550;2023-08-06T09:12:38;2.60;;;2.40;;
71265;SDS011;59030;52.052;8.550;2023-08-06T09:15:06;2.37;;;2.17;;
71265;SDS011;59030;52.052;8.550;2023-08-06T09:17:33;2.63;;;2.00;;
71265;SDS011;59030;52.052;8.550;2023-08-06T09:20:11;1.97;;;1.87;;
71265;SDS011;59030;52.052;8.550;2023-08-06T09:22:39;2.40;;;2.20;;
71265;SDS011;59030;52.052;8.550;2023-08-06T09:25:07;3.00;;;2.23;;
71265;SDS011;59030;52.052;8.550;2023-08-06T09:27:36;2.40;;;2.20;;
71265;SDS011;59030;52.052;8.550;2023-08-06T09:30:04;2.67;;;2.33;;
71265;SDS011;59030;52.052;8.550;2023-08-06T09:32:45;2.50;;;2.30;;
71265;SDS011;59030;52.052;8.550;2023-08-06T09:35:16;2.10;;;1.90;;
71265;SDS011;59030;52.052;8.550;2023-08-06T09:37:44;2.23;;;1.90;;
71265;SDS011;59030;52.052;8.550;2023-08-06T09:40:27;2.37;;;1.77;;
71265;SDS011;59030;52.052;8.550;2023-08-06T09:42:55;2.20;;;1.87;;
71265;SDS011;59030;52.052;8.550;2023-08-06T09:45:23;2.40;;;2.20;;
71265;SDS011;59030;52.052;8.550;2023-08-06T09:47:50;2.10;;;1.90;;
71265;SDS011;59030;52.052;8.550;2023-08-06T09:50:22;2.03;;;1.93;;
71265;SDS011;59030;52.052;8.550;2023-08-06T09:52:50;2.97;;;1.90;;
71265;SDS011;59030;52.052;8.550;2023-08-06T09:55:19;1.80;;;1.70;;
71265;SDS011;59030;52.052;8.550;2023-08-06T09:57:46;3.77;;;1.90;;
71265;SDS011;59030;52.052;8.550;2023-08-06T10:00:14;2.03;;;1.83;;
71265;SDS011;59030;52.052;8.550;2023-08-06T10:02:43;1.90;;;1.80;;
71265;SDS011;59030;52.052;8.550;2023-08-06T10:05:11;1.87;;;1.73;;
71265;SDS011;59030;52.052;8.550;2023-08-06T10:07:38;1.40;;;1.30;;
71265;SDS011;59030;52.052;8.550;2023-08-06T10:10:07;1.57;;;1.47;;
71265;SDS011;59030;52.052;8.550;2023-08-06T10:12:35;1.53;;;1.43;;
71265;SDS011;59030;52.052;8.550;2023-08-06T10:15:09;1.60;;;1.50;;
71265;SDS011;59030;52.052;8.550;2023-08-06T10:17:37;1.70;;;1.60;;
71265;SDS011;59030;52.052;8.550;2023-08-06T10:20:06;2.33;;;1.80;;
71265;SDS011;59030;52.052;8.550;2023-08-06T10:22:34;1.93;;;1.80;;
71265;SDS011;59030;52.052;8.550;2023-08-06T10:25:02;1.93;;;1.80;;
71265;SDS011;59030;52.052;8.550;2023-08-06T10:27:33;1.77;;;1.67;;
71265;SDS011;59030;52.052;8.550;2023-08-06T10:32:47;1.97;;;1.70;;
71265;SDS011;59030;52.052;8.550;2023-08-06T10:35:27;1.90;;;1.70;;
71265;SDS011;59030;52.052;8.550;2023-08-06T10:37:58;2.20;;;2.00;;
71265;SDS011;59030;52.052;8.550;2023-08-06T10:40:26;1.83;;;1.73;;
71265;SDS011;59030;52.052;8.550;2023-08-06T10:42:55;2.03;;;1.83;;
71265;SDS011;59030;52.052;8.550;2023-08-06T10:45:23;2.00;;;1.80;;
71265;SDS011;59030;52.052;8.550;2023-08-06T10:47:54;1.93;;;1.60;;
71265;SDS011;59030;52.052;8.550;2023-08-06T10:50:24;1.77;;;1.67;;
71265;SDS011;59030;52.052;8.550;2023-08-06T10:52:54;2.23;;;2.03;;
71265;SDS011;59030;52.052;8.550;2023-08-06T10:55:27;3.47;;;2.17;;
71265;SDS011;59030;52.052;8.550;2023-08-06T10:58:01;2.10;;;1.90;;
71265;SDS011;59030;52.052;8.550;2023-08-06T11:00:34;2.43;;;2.10;;
71265;SDS011;59030;52.052;8.550;2023-08-06T11:03:02;2.83;;;1.80;;
71265;SDS011;59030;52.052;8.550;2023-08-06T11:05:30;1.93;;;1.83;;
71265;SDS011;59030;52.052;8.550;2023-08-06T11:07:58;1.60;;;1.50;;
71265;SDS011;59030;52.052;8.550;2023-08-06T11:10:29;1.83;;;1.73;;
71265;SDS011;59030;52.052;8.550;2023-08-06T11:13:01;2.00;;;1.80;;
71265;SDS011;59030;52.052;8.550;2023-08-06T11:15:29;1.80;;;1.70;;
71265;SDS011;59030;52.052;8.550;2023-08-06T11:17:57;2.03;;;1.73;;
71265;SDS011;59030;52.052;8.550;2023-08-06T11:20:28;1.60;;;1.50;;
71265;SDS011;59030;52.052;8.550;2023-08-06T11:22:55;1.97;;;1.80;;
71265;SDS011;59030;52.052;8.550;2023-08-06T11:25:25;1.83;;;1.57;;
71265;SDS011;59030;52.052;8.550;2023-08-06T11:27:56;2.00;;;1.80;;
71265;SDS011;59030;52.052;8.550;2023-08-06T11:30:23;1.73;;;1.63;;
71265;SDS011;59030;52.052;8.550;2023-08-06T11:32:51;2.00;;;1.80;;
71265;SDS011;59030;52.052;8.550;2023-08-06T11:35:18;2.50;;;2.00;;
71265;SDS011;59030;52.052;8.550;2023-08-06T11:37:46;2.33;;;1.93;;
71265;SDS011;59030;52.052;8.550;2023-08-06T11:40:15;2.03;;;1.77;;
71265;SDS011;59030;52.052;8.550;2023-08-06T11:42:42;3.20;;;1.70;;
71265;SDS011;59030;52.052;8.550;2023-08-06T11:45:10;3.47;;;1.63;;
71265;SDS011;59030;52.052;8.550;2023-08-06T11:47:41;1.50;;;1.40;;
71265;SDS011;59030;52.052;8.550;2023-08-06T11:50:22;1.70;;;1.60;;
71265;SDS011;59030;52.052;8.550;2023-08-06T11:52:49;1.90;;;1.80;;
71265;SDS011;59030;52.052;8.550;2023-08-06T11:58:06;1.70;;;1.60;;
71265;SDS011;59030;52.052;8.550;2023-08-06T12:00:35;2.70;;;1.80;;
71265;SDS011;59030;52.052;8.550;2023-08-06T12:03:04;1.90;;;1.80;;
71265;SDS011;59030;52.052;8.550;2023-08-06T12:05:32;2.40;;;2.03;;
71265;SDS011;59030;52.052;8.550;2023-08-06T12:08:00;1.80;;;1.70;;
71265;SDS011;59030;52.052;8.550;2023-08-06T12:10:28;1.73;;;1.63;;
71265;SDS011;59030;52.052;8.550;2023-08-06T12:13:05;1.53;;;1.43;;
71265;SDS011;59030;52.052;8.550;2023-08-06T12:15:30;1.67;;;1.57;;
71265;SDS011;59030;52.052;8.550;2023-08-06T12:17:58;1.90;;;1.80;;
71265;SDS011;59030;52.052;8.550;2023-08-06T12:26:45;1.60;;;1.50;;
71265;SDS011;59030;52.052;8.550;2023-08-06T12:29:18;1.83;;;1.60;;
71265;SDS011;59030;52.052;8.550;2023-08-06T12:31:46;1.70;;;1.60;;
71265;SDS011;59030;52.052;8.550;2023-08-06T12:34:13;2.07;;;1.83;;
71265;SDS011;59030;52.052;8.550;2023-08-06T12:36:41;3.00;;;1.80;;
71265;SDS011;59030;52.052;8.550;2023-08-06T12:39:08;1.53;;;1.40;;
71265;SDS011;59030;52.052;8.550;2023-08-06T12:41:36;1.60;;;1.50;;
71265;SDS011;59030;52.052;8.550;2023-08-06T12:44:07;1.90;;;1.50;;
71265;SDS011;59030;52.052;8.550;2023-08-06T12:46:40;1.60;;;1.50;;
71265;SDS011;59030;52.052;8.550;2023-08-06T12:49:07;1.93;;;1.70;;
71265;SDS011;59030;52.052;8.550;2023-08-06T12:51:35;1.50;;;1.40;;
71265;SDS011;59030;52.052;8.550;2023-08-06T12:54:02;1.30;;;1.27;;
71265;SDS011;59030;52.052;8.550;2023-08-06T12:56:29;1.63;;;1.53;;
71265;SDS011;59030;52.052;8.550;2023-08-06T12:58:57;1.73;;;1.63;;
71265;SDS011;59030;52.052;8.550;2023-08-06T13:01:27;1.47;;;1.37;;
71265;SDS011;59030;52.052;8.550;2023-08-06T13:13:15;1.47;;;1.37;;
71265;SDS011;59030;52.052;8.550;2023-08-06T13:15:43;1.80;;;1.40;;
71265;SDS011;59030;52.052;8.550;2023-08-06T13:18:10;1.60;;;1.50;;
71265;SDS011;59030;52.052;8.550;2023-08-06T13:20:38;1.93;;;1.50;;
71265;SDS011;59030;52.052;8.550;2023-08-06T13:23:06;1.47;;;1.37;;
71265;SDS011;59030;52.052;8.550;2023-08-06T13:25:33;11.37;;;5.13;;
71265;SDS011;59030;52.052;8.550;2023-08-06T13:28:02;4.17;;;2.73;;
71265;SDS011;59030;52.052;8.550;2023-08-06T13:30:30;3.10;;;1.93;;
71265;SDS011;59030;52.052;8.550;2023-08-06T13:32:57;2.50;;;1.97;;
71265;SDS011;59030;52.052;8.550;2023-08-06T13:35:24;2.53;;;1.90;;
71265;SDS011;59030;52.052;8.550;2023-08-06T13:37:51;1.90;;;1.70;;
71265;SDS011;59030;52.052;8.550;2023-08-06T13:40:20;1.80;;;1.70;;
71265;SDS011;59030;52.052;8.550;2023-08-06T13:42:47;1.83;;;1.67;;
71265;SDS011;59030;52.052;8.550;2023-08-06T13:45:14;1.57;;;1.47;;
71265;SDS011;59030;52.052;8.550;2023-08-06T13:47:42;3.20;;;2.47;;
71265;SDS011;59030;52.052;8.550;2023-08-06T13:50:09;2.50;;;1.87;;
71265;SDS011;59030;52.052;8.550;2023-08-06T13:52:37;1.50;;;1.40;;
71265;SDS011;59030;52.052;8.550;2023-08-06T13:55:04;1.60;;;1.50;;
71265;SDS011;59030;52.052;8.550;2023-08-06T13:57:32;1.87;;;1.70;;
71265;SDS011;59030;52.052;8.550;2023-08-06T13:59:59;2.13;;;1.93;;
71265;SDS011;59030;52.052;8.550;2023-08-06T14:02:27;1.70;;;1.60;;
71265;SDS011;59030;52.052;8.550;2023-08-06T14:04:54;2.63;;;1.70;;
71265;SDS011;59030;52.052;8.550;2023-08-06T14:07:21;1.70;;;1.60;;
71265;SDS011;59030;52.052;8.550;2023-08-06T14:09:48;1.70;;;1.60;;
71265;SDS011;59030;52.052;8.550;2023-08-06T14:12:16;2.00;;;1.80;;
71265;SDS011;59030;52.052;8.550;2023-08-06T14:14:43;1.80;;;1.70;;
71265;SDS011;59030;52.052;8.550;2023-08-06T14:17:11;1.80;;;1.70;;
71265;SDS011;59030;52.052;8.550;2023-08-06T14:19:38;1.80;;;1.70;;
71265;SDS011;59030;52.052;8.550;2023-08-06T14:22:05;1.90;;;1.63;;
71265;SDS011;59030;52.052;8.550;2023-08-06T14:24:32;1.60;;;1.50;;
71265;SDS011;59030;52.052;8.550;2023-08-06T14:27:00;1.90;;;1.80;;
71265;SDS011;59030;52.052;8.550;2023-08-06T14:29:27;1.60;;;1.50;;
71265;SDS011;59030;52.052;8.550;2023-08-06T14:31:54;1.60;;;1.50;;
71265;SDS011;59030;52.052;8.550;2023-08-06T14:34:21;1.83;;;1.73;;
71265;SDS011;59030;52.052;8.550;2023-08-06T14:36:49;4.77;;;1.50;;
71265;SDS011;59030;52.052;8.550;2023-08-06T14:39:16;1.87;;;1.63;;
71265;SDS011;59030;52.052;8.550;2023-08-06T14:41:43;1.50;;;1.40;;
71265;SDS011;59030;52.052;8.550;2023-08-06T14:44:11;1.53;;;1.43;;
71265;SDS011;59030;52.052;8.550;2023-08-06T14:46:38;1.77;;;1.67;;
71265;SDS011;59030;52.052;8.550;2023-08-06T14:49:05;1.90;;;1.70;;
71265;SDS011;59030;52.052;8.550;2023-08-06T14:51:32;1.80;;;1.70;;
71265;SDS011;59030;52.052;8.550;2023-08-06T14:54:00;2.50;;;2.07;;
71265;SDS011;59030;52.052;8.550;2023-08-06T14:56:27;2.30;;;1.83;;
71265;SDS011;59030;52.052;8.550;2023-08-06T14:58:55;1.93;;;1.70;;
71265;SDS011;59030;52.052;8.550;2023-08-06T15:01:22;1.90;;;1.70;;
71265;SDS011;59030;52.052;8.550;2023-08-06T15:03:50;1.90;;;1.60;;
71265;SDS011;59030;52.052;8.550;2023-08-06T15:06:17;1.77;;;1.67;;
71265;SDS011;59030;52.052;8.550;2023-08-06T15:08:44;1.60;;;1.50;;
71265;SDS011;59030;52.052;8.550;2023-08-06T15:11:13;1.70;;;1.60;;
71265;SDS011;59030;52.052;8.550;2023-08-06T15:13:40;1.50;;;1.40;;